Ncc Rabigh — HZQA — position and weather

sailwx.info

Track history (hours):
 
Tides and Currents Weather Stations Pressure Air Temp Water Temp Dewpoint Dewpoint Depression Visibility Wind Speed Wind Dir Waves Ship Positions

Ncc Rabigh

Last reported at 2014-Jun-16 03:14 UTC. Time now 2014-Aug-23 07:33 UTC.
Position N 30°47' E 032°20'.
Warning: this ship's position is months out of date.

Length 183 m; draft 10.8 m.

Type: Ship. MMSI: 403575000.

Date/timePositionNaut miles runAvg speedWind from/ knotsBaromVisibWave heightAir tempDewpointWater temp
2014-Jun-16 03:14N 30°47' E 032°20'35 7.1
2014-Jun-15 22:18N 31°22' E 032°20'0 0.1
2014-Jun-15 21:31N 31°22' E 032°20'0 0.0
2014-Jun-15 20:28N 31°22' E 032°20'0 0.0
2014-Jun-15 16:31N 31°22' E 032°20'0 0.1
2014-Jun-15 15:28N 31°22' E 032°20'5 5.7
2014-Jun-15 14:33N 31°27' E 032°18'1312.5
2014-Jun-15 13:30N 31°36' E 032°07'1212.6
2014-Jun-15 12:34N 31°45' E 031°57'1313.0
2014-Jun-15 11:33N 31°52' E 031°45'8 8.3
2014-Jun-15 10:33N 31°57' E 031°37'1713.0
2014-Jun-15 09:15N 32°07' E 031°21'1013.4
2014-Jun-15 08:30N 32°13' E 031°11'1313.6
2014-Jun-15 07:33N 32°20' E 030°59'1313.5
2014-Jun-15 06:34N 32°25' E 030°44'1413.6
2014-Jun-15 05:34N 32°30' E 030°29'1413.9
2014-Jun-15 04:34N 32°35' E 030°13'1413.9
2014-Jun-15 03:34N 32°40' E 029°58'1413.7
2014-Jun-15 02:33N 32°45' E 029°43'1313.5
2014-Jun-15 01:34N 32°49' E 029°28'1313.3
2014-Jun-15 00:33N 32°54' E 029°13'1313.2
2014-Jun-14 23:33N 32°59' E 028°58'1313.4
2014-Jun-14 22:33N 33°03' E 028°43'3213.8
2014-Jun-14 20:16N 33°14' E 028°08'1013.6
2014-Jun-14 19:33N 33°18' E 027°57'  
2014-Jun-06 14:21N 36°28' E 015°01'1114.5
2014-Jun-06 13:34N 36°28' E 014°47'1514.5
2014-Jun-06 12:33N 36°27' E 014°29'1514.5
2014-Jun-06 11:33N 36°30' E 014°12'1413.8
2014-Jun-06 10:33N 36°33' E 013°55'1413.8
2014-Jun-06 09:33N 36°36' E 013°38'1413.6
2014-Jun-06 08:33N 36°38' E 013°21'1313.3
2014-Jun-06 07:33N 36°41' E 013°05'1413.6
2014-Jun-06 06:33N 36°44' E 012°49'1414.0
2014-Jun-06 05:33N 36°47' E 012°31'1413.8
2014-Jun-06 04:33N 36°53' E 012°16'1413.9
2014-Jun-06 03:34N 36°59' E 012°00'  
Track history (hours):
 
Tides and Currents Weather Stations Pressure Air Temp Water Temp Dewpoint Dewpoint Depression Visibility Wind Speed Wind Dir Waves Ship Positions

Ncc Rabigh

Last reported at 2014-Jun-16 03:14 UTC. Time now 2014-Aug-23 07:33 UTC.
Position N 30°47' E 032°20'.
Warning: this ship's position is months out of date.

Length 183 m; draft 10.8 m.

Type: Ship. MMSI: 403575000.

Date/timePositionNaut miles runAvg speedWind from/ knotsBaromVisibWave heightAir tempDewpointWater temp
2014-Jun-16 03:14N 30°47' E 032°20'35 7.1
2014-Jun-15 22:18N 31°22' E 032°20'0 0.1
2014-Jun-15 21:31N 31°22' E 032°20'0 0.0
2014-Jun-15 20:28N 31°22' E 032°20'0 0.0
2014-Jun-15 16:31N 31°22' E 032°20'0 0.1
2014-Jun-15 15:28N 31°22' E 032°20'5 5.7
2014-Jun-15 14:33N 31°27' E 032°18'1312.5
2014-Jun-15 13:30N 31°36' E 032°07'1212.6
2014-Jun-15 12:34N 31°45' E 031°57'1313.0
2014-Jun-15 11:33N 31°52' E 031°45'8 8.3
2014-Jun-15 10:33N 31°57' E 031°37'1713.0
2014-Jun-15 09:15N 32°07' E 031°21'1013.4
2014-Jun-15 08:30N 32°13' E 031°11'1313.6
2014-Jun-15 07:33N 32°20' E 030°59'1313.5
2014-Jun-15 06:34N 32°25' E 030°44'1413.6
2014-Jun-15 05:34N 32°30' E 030°29'1413.9
2014-Jun-15 04:34N 32°35' E 030°13'1413.9
2014-Jun-15 03:34N 32°40' E 029°58'1413.7
2014-Jun-15 02:33N 32°45' E 029°43'1313.5
2014-Jun-15 01:34N 32°49' E 029°28'1313.3
2014-Jun-15 00:33N 32°54' E 029°13'1313.2
2014-Jun-14 23:33N 32°59' E 028°58'1313.4
2014-Jun-14 22:33N 33°03' E 028°43'3213.8
2014-Jun-14 20:16N 33°14' E 028°08'1013.6
2014-Jun-14 19:33N 33°18' E 027°57'  
2014-Jun-06 14:21N 36°28' E 015°01'1114.5
2014-Jun-06 13:34N 36°28' E 014°47'1514.5
2014-Jun-06 12:33N 36°27' E 014°29'1514.5
2014-Jun-06 11:33N 36°30' E 014°12'1413.8
2014-Jun-06 10:33N 36°33' E 013°55'1413.8
2014-Jun-06 09:33N 36°36' E 013°38'1413.6
2014-Jun-06 08:33N 36°38' E 013°21'1313.3
2014-Jun-06 07:33N 36°41' E 013°05'1413.6
2014-Jun-06 06:33N 36°44' E 012°49'1414.0
2014-Jun-06 05:33N 36°47' E 012°31'1413.8
2014-Jun-06 04:33N 36°53' E 012°16'1413.9
2014-Jun-06 03:34N 36°59' E 012°00'  

Dump ship's entire track history